sensor_id;sensor_type;location;lat;lon;timestamp;pressure;altitude;pressure_sealevel;temperature;humidity
44131;BME280;29792;48.726;9.248;2023-02-23T00:00:23;96558.16;;;9.80;85.95
44131;BME280;29792;48.726;9.248;2023-02-23T00:02:55;96553.88;;;9.81;85.88
44131;BME280;29792;48.726;9.248;2023-02-23T00:05:23;96558.00;;;9.82;85.59
44131;BME280;29792;48.726;9.248;2023-02-23T00:07:49;96554.66;;;9.81;85.57
44131;BME280;29792;48.726;9.248;2023-02-23T00:10:16;96553.72;;;9.82;85.62
44131;BME280;29792;48.726;9.248;2023-02-23T00:12:43;96553.72;;;9.82;86.14
44131;BME280;29792;48.726;9.248;2023-02-23T00:15:09;96555.34;;;9.83;85.73
44131;BME280;29792;48.726;9.248;2023-02-23T00:17:35;96552.91;;;9.82;85.46
44131;BME280;29792;48.726;9.248;2023-02-23T00:20:07;96554.00;;;9.79;85.90
44131;BME280;29792;48.726;9.248;2023-02-23T00:22:38;96555.16;;;9.75;85.93
44131;BME280;29792;48.726;9.248;2023-02-23T00:25:05;96552.88;;;9.72;86.21
44131;BME280;29792;48.726;9.248;2023-02-23T00:27:34;96558.25;;;9.69;86.63
44131;BME280;29792;48.726;9.248;2023-02-23T00:30:00;96554.19;;;9.67;86.85
44131;BME280;29792;48.726;9.248;2023-02-23T00:32:25;96557.69;;;9.66;87.22
44131;BME280;29792;48.726;9.248;2023-02-23T00:34:51;96555.28;;;9.64;87.06
44131;BME280;29792;48.726;9.248;2023-02-23T00:37:17;96555.28;;;9.64;87.29
44131;BME280;29792;48.726;9.248;2023-02-23T00:39:42;96545.84;;;9.65;87.19
44131;BME280;29792;48.726;9.248;2023-02-23T00:42:08;96551.75;;;9.65;87.64
44131;BME280;29792;48.726;9.248;2023-02-23T00:44:34;96554.31;;;9.65;87.59
44131;BME280;29792;48.726;9.248;2023-02-23T00:47:00;96552.56;;;9.66;88.05
44131;BME280;29792;48.726;9.248;2023-02-23T00:49:26;96548.25;;;9.66;88.36
44131;BME280;29792;48.726;9.248;2023-02-23T00:51:52;96550.00;;;9.66;88.94
44131;BME280;29792;48.726;9.248;2023-02-23T00:54:18;96548.53;;;9.63;89.42
44131;BME280;29792;48.726;9.248;2023-02-23T00:56:45;96554.72;;;9.61;90.13
44131;BME280;29792;48.726;9.248;2023-02-23T00:59:11;96550.66;;;9.58;90.58
44131;BME280;29792;48.726;9.248;2023-02-23T01:01:38;96548.38;;;9.55;91.48
44131;BME280;29792;48.726;9.248;2023-02-23T01:04:03;96543.75;;;9.49;92.22
44131;BME280;29792;48.726;9.248;2023-02-23T01:06:29;96547.50;;;9.45;92.54
44131;BME280;29792;48.726;9.248;2023-02-23T01:08:55;96550.31;;;9.42;93.38
44131;BME280;29792;48.726;9.248;2023-02-23T01:11:24;96548.03;;;9.39;93.69
44131;BME280;29792;48.726;9.248;2023-02-23T01:13:57;96542.09;;;9.38;94.23
44131;BME280;29792;48.726;9.248;2023-02-23T01:16:25;96540.47;;;9.37;94.24
44131;BME280;29792;48.726;9.248;2023-02-23T01:18:53;96543.16;;;9.36;94.21
44131;BME280;29792;48.726;9.248;2023-02-23T01:21:24;96540.72;;;9.34;95.05
44131;BME280;29792;48.726;9.248;2023-02-23T01:23:51;96539.09;;;9.33;95.15
44131;BME280;29792;48.726;9.248;2023-02-23T01:26:22;96539.38;;;9.30;95.59
44131;BME280;29792;48.726;9.248;2023-02-23T01:28:51;96541.22;;;9.28;95.32
44131;BME280;29792;48.726;9.248;2023-02-23T01:31:18;96537.16;;;9.26;95.78
44131;BME280;29792;48.726;9.248;2023-02-23T01:33:43;96539.72;;;9.26;95.94
44131;BME280;29792;48.726;9.248;2023-02-23T01:36:10;96536.25;;;9.27;96.40
44131;BME280;29792;48.726;9.248;2023-02-23T01:38:35;96535.31;;;9.28;96.57
44131;BME280;29792;48.726;9.248;2023-02-23T01:41:00;96530.06;;;9.29;96.46
44131;BME280;29792;48.726;9.248;2023-02-23T01:43:26;96534.25;;;9.30;97.33
44131;BME280;29792;48.726;9.248;2023-02-23T01:45:55;96528.56;;;9.27;97.71
44131;BME280;29792;48.726;9.248;2023-02-23T01:48:25;96529.50;;;9.26;97.98
44131;BME280;29792;48.726;9.248;2023-02-23T01:50:55;96532.34;;;9.23;98.42
44131;BME280;29792;48.726;9.248;2023-02-23T01:53:22;96525.72;;;9.20;98.38
44131;BME280;29792;48.726;9.248;2023-02-23T01:55:54;96530.41;;;9.15;98.71
44131;BME280;29792;48.726;9.248;2023-02-23T01:58:23;96528.09;;;9.12;99.13
44131;BME280;29792;48.726;9.248;2023-02-23T02:00:53;96524.19;;;9.08;99.39
44131;BME280;29792;48.726;9.248;2023-02-23T02:04:13;96529.53;;;9.05;99.81
44131;BME280;29792;48.726;9.248;2023-02-23T02:06:16;96523.84;;;9.01;99.92
44131;BME280;29792;48.726;9.248;2023-02-23T02:08:50;96523.31;;;8.98;99.82
44131;BME280;29792;48.726;9.248;2023-02-23T02:11:20;96522.50;;;8.97;100.00
44131;BME280;29792;48.726;9.248;2023-02-23T02:14:06;96520.06;;;8.96;100.00
44131;BME280;29792;48.726;9.248;2023-02-23T02:22:17;96521.06;;;8.84;100.00
44131;BME280;29792;48.726;9.248;2023-02-23T02:41:42;96504.28;;;8.70;100.00
44131;BME280;29792;48.726;9.248;2023-02-23T02:44:17;96506.97;;;8.68;100.00
44131;BME280;29792;48.726;9.248;2023-02-23T02:46:48;96503.75;;;8.66;100.00
44131;BME280;29792;48.726;9.248;2023-02-23T02:51:50;96502.25;;;8.64;100.00
44131;BME280;29792;48.726;9.248;2023-02-23T02:54:38;96505.84;;;8.61;100.00
44131;BME280;29792;48.726;9.248;2023-02-23T02:57:06;96499.13;;;8.60;100.00
44131;BME280;29792;48.726;9.248;2023-02-23T02:59:47;96500.19;;;8.58;100.00
44131;BME280;29792;48.726;9.248;2023-02-23T03:02:33;96506.09;;;8.58;100.00
44131;BME280;29792;48.726;9.248;2023-02-23T03:05:24;96503.66;;;8.57;100.00
44131;BME280;29792;48.726;9.248;2023-02-23T03:08:21;96498.00;;;8.53;100.00
44131;BME280;29792;48.726;9.248;2023-02-23T03:11:14;96497.31;;;8.51;100.00
44131;BME280;29792;48.726;9.248;2023-02-23T03:17:21;96505.44;;;8.45;100.00
44131;BME280;29792;48.726;9.248;2023-02-23T03:20:29;96500.59;;;8.42;100.00
44131;BME280;29792;48.726;9.248;2023-02-23T03:23:39;96500.94;;;8.37;100.00
44131;BME280;29792;48.726;9.248;2023-02-23T03:26:37;96494.59;;;8.32;100.00
44131;BME280;29792;48.726;9.248;2023-02-23T03:29:46;96494.00;;;8.28;100.00
44131;BME280;29792;48.726;9.248;2023-02-23T03:32:39;96502.56;;;8.27;100.00
44131;BME280;29792;48.726;9.248;2023-02-23T03:38:39;96498.44;;;8.26;100.00
44131;BME280;29792;48.726;9.248;2023-02-23T03:41:25;96502.47;;;8.29;100.00
44131;BME280;29792;48.726;9.248;2023-02-23T03:44:17;96500.72;;;8.29;100.00
44131;BME280;29792;48.726;9.248;2023-02-23T03:47:05;96499.59;;;8.33;100.00
44131;BME280;29792;48.726;9.248;2023-02-23T03:49:49;96498.53;;;8.36;100.00
44131;BME280;29792;48.726;9.248;2023-02-23T03:52:41;96499.47;;;8.35;100.00
44131;BME280;29792;48.726;9.248;2023-02-23T03:55:31;96505.94;;;8.39;100.00
44131;BME280;29792;48.726;9.248;2023-02-23T03:58:21;96500.03;;;8.38;100.00
44131;BME280;29792;48.726;9.248;2023-02-23T04:01:08;96507.56;;;8.40;100.00
44131;BME280;29792;48.726;9.248;2023-02-23T04:03:55;96509.19;;;8.41;100.00
44131;BME280;29792;48.726;9.248;2023-02-23T04:06:43;96502.34;;;8.41;100.00
44131;BME280;29792;48.726;9.248;2023-02-23T04:09:29;96503.97;;;8.43;100.00
44131;BME280;29792;48.726;9.248;2023-02-23T04:12:20;96502.09;;;8.45;100.00
44131;BME280;29792;48.726;9.248;2023-02-23T04:15:14;96505.44;;;8.45;100.00
44131;BME280;29792;48.726;9.248;2023-02-23T04:17:42;96504.41;;;8.48;100.00
44131;BME280;29792;48.726;9.248;2023-02-23T04:20:10;96506.94;;;8.48;100.00
44131;BME280;29792;48.726;9.248;2023-02-23T04:22:36;96507.75;;;8.48;100.00
44131;BME280;29792;48.726;9.248;2023-02-23T04:25:02;96508.56;;;8.49;100.00
44131;BME280;29792;48.726;9.248;2023-02-23T04:27:27;96515.31;;;8.50;100.00
44131;BME280;29792;48.726;9.248;2023-02-23T04:29:52;96508.47;;;8.50;100.00
44131;BME280;29792;48.726;9.248;2023-02-23T04:32:18;96507.38;;;8.53;100.00
44131;BME280;29792;48.726;9.248;2023-02-23T04:34:45;96506.56;;;8.52;100.00
44131;BME280;29792;48.726;9.248;2023-02-23T04:37:11;96511.69;;;8.52;100.00
44131;BME280;29792;48.726;9.248;2023-02-23T04:39:37;96506.56;;;8.52;100.00
44131;BME280;29792;48.726;9.248;2023-02-23T04:42:02;96510.88;;;8.52;100.00
44131;BME280;29792;48.726;9.248;2023-02-23T04:44:27;96504.03;;;8.52;100.00
44131;BME280;29792;48.726;9.248;2023-02-23T04:46:53;96506.72;;;8.51;100.00
44131;BME280;29792;48.726;9.248;2023-02-23T04:49:18;96508.31;;;8.52;100.00
44131;BME280;29792;48.726;9.248;2023-02-23T04:51:43;96506.56;;;8.52;100.00
44131;BME280;29792;48.726;9.248;2023-02-23T04:54:09;96511.69;;;8.52;100.00
44131;BME280;29792;48.726;9.248;2023-02-23T04:56:34;96512.63;;;8.51;100.00
44131;BME280;29792;48.726;9.248;2023-02-23T04:58:59;96511.00;;;8.50;100.00
44131;BME280;29792;48.726;9.248;2023-02-23T05:01:25;96514.50;;;8.49;100.00
44131;BME280;29792;48.726;9.248;2023-02-23T05:03:51;96514.50;;;8.49;100.00
44131;BME280;29792;48.726;9.248;2023-02-23T05:06:17;96511.38;;;8.46;100.00
44131;BME280;29792;48.726;9.248;2023-02-23T05:08:42;96513.81;;;8.47;100.00
44131;BME280;29792;48.726;9.248;2023-02-23T05:11:08;96513.00;;;8.47;100.00
44131;BME280;29792;48.726;9.248;2023-02-23T05:13:33;96515.41;;;8.48;100.00
44131;BME280;29792;48.726;9.248;2023-02-23T05:15:59;96511.94;;;8.49;100.00
44131;BME280;29792;48.726;9.248;2023-02-23T05:18:25;96517.03;;;8.49;100.00
44131;BME280;29792;48.726;9.248;2023-02-23T05:20:51;96513.56;;;8.50;100.00
44131;BME280;29792;48.726;9.248;2023-02-23T05:23:17;96514.38;;;8.51;100.00
44131;BME280;29792;48.726;9.248;2023-02-23T05:25:42;96516.78;;;8.52;100.00
44131;BME280;29792;48.726;9.248;2023-02-23T05:28:08;96515.03;;;8.53;100.00
44131;BME280;29792;48.726;9.248;2023-02-23T05:30:33;96514.22;;;8.52;100.00
44131;BME280;29792;48.726;9.248;2023-02-23T05:32:58;96512.38;;;8.54;100.00
44131;BME280;29792;48.726;9.248;2023-02-23T05:35:24;96511.56;;;8.54;100.00
44131;BME280;29792;48.726;9.248;2023-02-23T05:37:49;96512.50;;;8.53;100.00
44131;BME280;29792;48.726;9.248;2023-02-23T05:40:14;96514.13;;;8.54;100.00
44131;BME280;29792;48.726;9.248;2023-02-23T05:42:40;96514.94;;;8.54;100.00
44131;BME280;29792;48.726;9.248;2023-02-23T05:45:06;96513.19;;;8.55;100.00
44131;BME280;29792;48.726;9.248;2023-02-23T05:47:31;96515.63;;;8.56;100.00
44131;BME280;29792;48.726;9.248;2023-02-23T05:50:00;96514.56;;;8.59;100.00
44131;BME280;29792;48.726;9.248;2023-02-23T05:52:25;96520.59;;;8.58;100.00
44131;BME280;29792;48.726;9.248;2023-02-23T05:54:51;96519.09;;;8.55;100.00
44131;BME280;29792;48.726;9.248;2023-02-23T05:57:16;96519.00;;;8.57;100.00
44131;BME280;29792;48.726;9.248;2023-02-23T05:59:41;96516.44;;;8.57;100.00
44131;BME280;29792;48.726;9.248;2023-02-23T06:02:06;96519.69;;;8.59;100.00
44131;BME280;29792;48.726;9.248;2023-02-23T06:04:32;96521.16;;;8.61;100.00
44131;BME280;29792;48.726;9.248;2023-02-23T06:06:57;96524.28;;;8.65;100.00
44131;BME280;29792;48.726;9.248;2023-02-23T06:09:23;96524.97;;;8.67;100.00
44131;BME280;29792;48.726;9.248;2023-02-23T06:11:48;96518.00;;;8.69;100.00
44131;BME280;29792;48.726;9.248;2023-02-23T06:14:13;96518.56;;;8.72;100.00
44131;BME280;29792;48.726;9.248;2023-02-23T06:16:40;96524.22;;;8.76;100.00
44131;BME280;29792;48.726;9.248;2023-02-23T06:19:05;96531.53;;;8.80;100.00
44131;BME280;29792;48.726;9.248;2023-02-23T06:21:31;96526.31;;;8.82;100.00
44131;BME280;29792;48.726;9.248;2023-02-23T06:23:56;96531.28;;;8.84;100.00
44131;BME280;29792;48.726;9.248;2023-02-23T06:26:24;96529.41;;;8.86;100.00
44131;BME280;29792;48.726;9.248;2023-02-23T06:28:49;96531.72;;;8.89;100.00
44131;BME280;29792;48.726;9.248;2023-02-23T06:31:15;96530.66;;;8.91;100.00
44131;BME280;29792;48.726;9.248;2023-02-23T06:33:40;96536.59;;;8.92;100.00
44131;BME280;29792;48.726;9.248;2023-02-23T06:36:05;96541.44;;;8.95;100.00
44131;BME280;29792;48.726;9.248;2023-02-23T06:38:31;96543.97;;;8.95;100.00
44131;BME280;29792;48.726;9.248;2023-02-23T06:40:56;96543.06;;;8.96;100.00
44131;BME280;29792;48.726;9.248;2023-02-23T06:43:21;96541.31;;;8.96;100.00
44131;BME280;29792;48.726;9.248;2023-02-23T06:45:47;96548.16;;;8.96;100.00
44131;BME280;29792;48.726;9.248;2023-02-23T06:48:12;96542.34;;;8.94;100.00
44131;BME280;29792;48.726;9.248;2023-02-23T06:50:37;96543.16;;;8.94;100.00
44131;BME280;29792;48.726;9.248;2023-02-23T06:53:02;96556.63;;;8.96;100.00
44131;BME280;29792;48.726;9.248;2023-02-23T06:55:29;96557.56;;;8.95;100.00
44131;BME280;29792;48.726;9.248;2023-02-23T06:57:54;96557.56;;;8.95;100.00
44131;BME280;29792;48.726;9.248;2023-02-23T07:00:19;96555.94;;;8.94;100.00
44131;BME280;29792;48.726;9.248;2023-02-23T07:02:45;96565.22;;;8.95;100.00
44131;BME280;29792;48.726;9.248;2023-02-23T07:05:10;96556.75;;;8.95;100.00
44131;BME280;29792;48.726;9.248;2023-02-23T07:07:36;96570.34;;;8.95;100.00
44131;BME280;29792;48.726;9.248;2023-02-23T07:10:02;96568.47;;;8.97;100.00
44131;BME280;29792;48.726;9.248;2023-02-23T07:12:29;96575.09;;;9.00;100.00
44131;BME280;29792;48.726;9.248;2023-02-23T07:14:54;96571.56;;;9.01;100.00
44131;BME280;29792;48.726;9.248;2023-02-23T07:17:19;96573.31;;;9.00;100.00
44131;BME280;29792;48.726;9.248;2023-02-23T07:19:44;96576.56;;;9.02;100.00
44131;BME280;29792;48.726;9.248;2023-02-23T07:22:10;96581.94;;;8.99;100.00
44131;BME280;29792;48.726;9.248;2023-02-23T07:24:35;96582.19;;;8.96;100.00
44131;BME280;29792;48.726;9.248;2023-02-23T07:27:01;96577.56;;;8.90;100.00
44131;BME280;29792;48.726;9.248;2023-02-23T07:29:26;96585.34;;;8.89;100.00
44131;BME280;29792;48.726;9.248;2023-02-23T07:31:52;96580.13;;;8.90;100.00
44131;BME280;29792;48.726;9.248;2023-02-23T07:34:17;96581.75;;;8.91;100.00
44131;BME280;29792;48.726;9.248;2023-02-23T07:36:42;96585.13;;;8.92;100.00
44131;BME280;29792;48.726;9.248;2023-02-23T07:39:08;96589.97;;;8.95;100.00
44131;BME280;29792;48.726;9.248;2023-02-23T07:41:33;96583.09;;;8.95;100.00
44131;BME280;29792;48.726;9.248;2023-02-23T07:43:58;96587.16;;;8.98;100.00
44131;BME280;29792;48.726;9.248;2023-02-23T07:46:24;96585.97;;;9.02;100.00
44131;BME280;29792;48.726;9.248;2023-02-23T07:48:50;96584.13;;;9.04;100.00
44131;BME280;29792;48.726;9.248;2023-02-23T07:51:15;96586.56;;;9.05;100.00
44131;BME280;29792;48.726;9.248;2023-02-23T07:53:41;96587.09;;;9.09;100.00
44131;BME280;29792;48.726;9.248;2023-02-23T07:56:07;96590.22;;;9.12;100.00
44131;BME280;29792;48.726;9.248;2023-02-23T07:58:35;96578.81;;;9.16;100.00
44131;BME280;29792;48.726;9.248;2023-02-23T08:01:00;96581.69;;;9.23;100.00
44131;BME280;29792;48.726;9.248;2023-02-23T08:03:26;96587.00;;;9.31;100.00
44131;BME280;29792;48.726;9.248;2023-02-23T08:05:51;96588.22;;;9.37;100.00
44131;BME280;29792;48.726;9.248;2023-02-23T08:08:16;96586.78;;;9.44;100.00
44131;BME280;29792;48.726;9.248;2023-02-23T08:10:41;96587.19;;;9.49;100.00
44131;BME280;29792;48.726;9.248;2023-02-23T08:13:07;96588.19;;;9.57;100.00
44131;BME280;29792;48.726;9.248;2023-02-23T08:15:32;96596.19;;;9.64;100.00
44131;BME280;29792;48.726;9.248;2023-02-23T08:17:58;96592.66;;;9.65;100.00
44131;BME280;29792;48.726;9.248;2023-02-23T08:20:23;96597.66;;;9.67;100.00
44131;BME280;29792;48.726;9.248;2023-02-23T08:22:53;96593.81;;;9.72;100.00
44131;BME280;29792;48.726;9.248;2023-02-23T08:25:18;96595.84;;;9.78;100.00
44131;BME280;29792;48.726;9.248;2023-02-23T08:27:44;96602.19;;;9.84;100.00
44131;BME280;29792;48.726;9.248;2023-02-23T08:30:10;96597.00;;;9.95;100.00
44131;BME280;29792;48.726;9.248;2023-02-23T08:32:35;96593.78;;;10.03;100.00
44131;BME280;29792;48.726;9.248;2023-02-23T08:35:00;96596.75;;;10.08;100.00
44131;BME280;29792;48.726;9.248;2023-02-23T08:37:29;96595.16;;;10.16;100.00
44131;BME280;29792;48.726;9.248;2023-02-23T08:39:55;96592.66;;;10.26;100.00
44131;BME280;29792;48.726;9.248;2023-02-23T08:42:20;96595.38;;;10.34;100.00
44131;BME280;29792;48.726;9.248;2023-02-23T08:44:46;96593.78;;;10.43;100.00
44131;BME280;29792;48.726;9.248;2023-02-23T08:47:13;96591.25;;;10.52;100.00
44131;BME280;29792;48.726;9.248;2023-02-23T08:49:40;96599.06;;;10.60;100.00
44131;BME280;29792;48.726;9.248;2023-02-23T08:52:06;96591.78;;;10.65;100.00
44131;BME280;29792;48.726;9.248;2023-02-23T08:54:31;96593.00;;;10.71;100.00
44131;BME280;29792;48.726;9.248;2023-02-23T08:56:56;96597.44;;;10.79;100.00
44131;BME280;29792;48.726;9.248;2023-02-23T08:59:22;96604.19;;;10.89;100.00
44131;BME280;29792;48.726;9.248;2023-02-23T09:01:47;96601.09;;;10.95;100.00
44131;BME280;29792;48.726;9.248;2023-02-23T09:04:13;96601.38;;;11.02;100.00
44131;BME280;29792;48.726;9.248;2023-02-23T09:06:38;96604.34;;;11.07;100.00
44131;BME280;29792;48.726;9.248;2023-02-23T09:09:05;96608.91;;;11.13;100.00
44131;BME280;29792;48.726;9.248;2023-02-23T09:11:30;96605.78;;;11.19;100.00
44131;BME280;29792;48.726;9.248;2023-02-23T09:13:55;96607.72;;;11.17;100.00
44131;BME280;29792;48.726;9.248;2023-02-23T09:16:20;96611.91;;;11.18;100.00
44131;BME280;29792;48.726;9.248;2023-02-23T09:18:46;96600.97;;;11.16;100.00
44131;BME280;29792;48.726;9.248;2023-02-23T09:21:16;96602.72;;;11.16;100.00
44131;BME280;29792;48.726;9.248;2023-02-23T09:23:49;96612.28;;;11.14;100.00
44131;BME280;29792;48.726;9.248;2023-02-23T09:26:17;96611.47;;;11.13;100.00
44131;BME280;29792;48.726;9.248;2023-02-23T09:28:43;96617.03;;;11.18;100.00
44131;BME280;29792;48.726;9.248;2023-02-23T09:31:10;96611.47;;;11.23;100.00
44131;BME280;29792;48.726;9.248;2023-02-23T09:33:36;96606.59;;;11.29;100.00
44131;BME280;29792;48.726;9.248;2023-02-23T09:36:08;96608.22;;;11.30;100.00
44131;BME280;29792;48.726;9.248;2023-02-23T09:38:33;96605.66;;;11.30;100.00
44131;BME280;29792;48.726;9.248;2023-02-23T09:40:59;96608.78;;;11.34;100.00
44131;BME280;29792;48.726;9.248;2023-02-23T09:43:32;96609.41;;;11.36;100.00
44131;BME280;29792;48.726;9.248;2023-02-23T09:46:13;96608.34;;;11.38;100.00
44131;BME280;29792;48.726;9.248;2023-02-23T09:48:43;96609.84;;;11.41;100.00
44131;BME280;29792;48.726;9.248;2023-02-23T09:51:15;96606.16;;;11.43;100.00
44131;BME280;29792;48.726;9.248;2023-02-23T09:53:44;96610.09;;;11.47;100.00
44131;BME280;29792;48.726;9.248;2023-02-23T09:56:31;96608.06;;;11.51;100.00
44131;BME280;29792;48.726;9.248;2023-02-23T09:59:00;96602.75;;;11.62;100.00
44131;BME280;29792;48.726;9.248;2023-02-23T10:01:36;96605.97;;;11.74;100.00
44131;BME280;29792;48.726;9.248;2023-02-23T10:04:18;96601.75;;;11.92;100.00
44131;BME280;29792;48.726;9.248;2023-02-23T10:06:51;96604.91;;;12.13;100.00
44131;BME280;29792;48.726;9.248;2023-02-23T10:09:41;96605.19;;;12.38;100.00
44131;BME280;29792;48.726;9.248;2023-02-23T10:12:33;96609.78;;;12.61;100.00
44131;BME280;29792;48.726;9.248;2023-02-23T10:17:51;96609.06;;;13.05;100.00
44131;BME280;29792;48.726;9.248;2023-02-23T10:22:46;96610.34;;;13.44;100.00
44131;BME280;29792;48.726;9.248;2023-02-23T10:25:16;96614.94;;;13.58;99.35
44131;BME280;29792;48.726;9.248;2023-02-23T10:27:47;96614.03;;;13.67;98.86
44131;BME280;29792;48.726;9.248;2023-02-23T10:32:49;96620.44;;;13.89;97.87
44131;BME280;29792;48.726;9.248;2023-02-23T10:35:19;96615.28;;;13.89;96.29
44131;BME280;29792;48.726;9.248;2023-02-23T10:37:46;96614.34;;;13.90;95.07
44131;BME280;29792;48.726;9.248;2023-02-23T10:40:16;96612.41;;;13.92;93.58
44131;BME280;29792;48.726;9.248;2023-02-23T10:42:42;96620.47;;;13.97;92.87
44131;BME280;29792;48.726;9.248;2023-02-23T10:45:19;96617.75;;;13.99;92.40
44131;BME280;29792;48.726;9.248;2023-02-23T10:47:55;96611.34;;;14.11;93.88
44131;BME280;29792;48.726;9.248;2023-02-23T10:50:22;96606.09;;;14.21;94.66
44131;BME280;29792;48.726;9.248;2023-02-23T10:52:52;96609.03;;;14.26;94.61
44131;BME280;29792;48.726;9.248;2023-02-23T10:55:22;96608.09;;;14.35;93.30
44131;BME280;29792;48.726;9.248;2023-02-23T10:57:49;96611.34;;;14.45;92.69
44131;BME280;29792;48.726;9.248;2023-02-23T11:02:43;96603.03;;;14.51;91.21
44131;BME280;29792;48.726;9.248;2023-02-23T11:08:31;96603.03;;;14.59;87.84
44131;BME280;29792;48.726;9.248;2023-02-23T11:11:19;96600.50;;;14.75;87.64
44131;BME280;29792;48.726;9.248;2023-02-23T11:13:49;96603.72;;;14.94;86.11
44131;BME280;29792;48.726;9.248;2023-02-23T11:16:18;96599.88;;;15.06;85.07
44131;BME280;29792;48.726;9.248;2023-02-23T11:18:55;96594.38;;;15.25;83.74
44131;BME280;29792;48.726;9.248;2023-02-23T11:21:24;96581.16;;;15.44;82.11
44131;BME280;29792;48.726;9.248;2023-02-23T11:23:52;96590.03;;;15.58;81.09
44131;BME280;29792;48.726;9.248;2023-02-23T11:26:35;96586.13;;;15.70;79.58
44131;BME280;29792;48.726;9.248;2023-02-23T11:29:12;96588.22;;;15.67;78.13
44131;BME280;29792;48.726;9.248;2023-02-23T11:31:39;96581.63;;;15.64;77.09
44131;BME280;29792;48.726;9.248;2023-02-23T11:34:19;96581.78;;;15.62;77.55
44131;BME280;29792;48.726;9.248;2023-02-23T11:36:57;96575.31;;;15.67;75.93
44131;BME280;29792;48.726;9.248;2023-02-23T11:39:22;96577.88;;;15.75;75.67
44131;BME280;29792;48.726;9.248;2023-02-23T11:44:38;96568.97;;;15.85;73.31
44131;BME280;29792;48.726;9.248;2023-02-23T11:47:04;96571.53;;;15.93;74.33
44131;BME280;29792;48.726;9.248;2023-02-23T11:49:32;96565.06;;;15.97;71.44
44131;BME280;29792;48.726;9.248;2023-02-23T11:52:00;96562.78;;;16.02;70.91
44131;BME280;29792;48.726;9.248;2023-02-23T11:54:28;96560.19;;;16.02;70.64
44131;BME280;29792;48.726;9.248;2023-02-23T11:56:54;96558.44;;;16.03;70.12
44131;BME280;29792;48.726;9.248;2023-02-23T11:59:33;96559.69;;;16.07;70.76
44131;BME280;29792;48.726;9.248;2023-02-23T12:02:20;96560.50;;;16.08;70.05
44131;BME280;29792;48.726;9.248;2023-02-23T12:04:48;96554.88;;;16.04;69.07
44131;BME280;29792;48.726;9.248;2023-02-23T12:07:31;96552.44;;;16.02;69.28
44131;BME280;29792;48.726;9.248;2023-02-23T12:10:19;96552.94;;;15.98;69.18
44131;BME280;29792;48.726;9.248;2023-02-23T12:15:52;96552.50;;;15.94;69.24
44131;BME280;29792;48.726;9.248;2023-02-23T12:18:32;96542.16;;;15.94;70.28
44131;BME280;29792;48.726;9.248;2023-02-23T12:21:34;96539.22;;;15.97;69.61
44131;BME280;29792;48.726;9.248;2023-02-23T12:24:16;96538.25;;;15.98;68.73
44131;BME280;29792;48.726;9.248;2023-02-23T12:29:36;96537.56;;;16.13;67.33
44131;BME280;29792;48.726;9.248;2023-02-23T12:32:12;96535.59;;;16.15;68.59
44131;BME280;29792;48.726;9.248;2023-02-23T12:34:50;96534.97;;;16.13;68.31
44131;BME280;29792;48.726;9.248;2023-02-23T12:37:58;96529.50;;;16.08;66.84
44131;BME280;29792;48.726;9.248;2023-02-23T12:40:27;96532.44;;;16.05;66.24
44131;BME280;29792;48.726;9.248;2023-02-23T12:43:04;96522.91;;;16.05;66.78
44131;BME280;29792;48.726;9.248;2023-02-23T12:45:41;96525.31;;;15.98;65.90
44131;BME280;29792;48.726;9.248;2023-02-23T12:48:29;96521.97;;;15.90;65.72
44131;BME280;29792;48.726;9.248;2023-02-23T12:50:59;96524.38;;;15.91;66.13
44131;BME280;29792;48.726;9.248;2023-02-23T12:53:43;96522.41;;;16.01;67.12
44131;BME280;29792;48.726;9.248;2023-02-23T12:56:18;96521.28;;;16.04;65.56
44131;BME280;29792;48.726;9.248;2023-02-23T13:01:44;96518.41;;;15.91;67.30
44131;BME280;29792;48.726;9.248;2023-02-23T13:04:48;96512.19;;;15.77;67.53
44131;BME280;29792;48.726;9.248;2023-02-23T13:10:30;96516.34;;;15.31;68.40
44131;BME280;29792;48.726;9.248;2023-02-23T13:14:01;96520.38;;;15.09;68.99
44131;BME280;29792;48.726;9.248;2023-02-23T13:16:19;96524.41;;;14.87;70.66
44131;BME280;29792;48.726;9.248;2023-02-23T13:18:51;96522.66;;;14.80;70.98
44131;BME280;29792;48.726;9.248;2023-02-23T13:21:28;96514.91;;;14.72;71.93
44131;BME280;29792;48.726;9.248;2023-02-23T13:24:01;96520.72;;;14.66;72.86
44131;BME280;29792;48.726;9.248;2023-02-23T13:26:51;96518.75;;;14.60;73.27
44131;BME280;29792;48.726;9.248;2023-02-23T13:32:01;96526.81;;;14.48;73.77
44131;BME280;29792;48.726;9.248;2023-02-23T13:34:32;96515.84;;;14.38;72.42
44131;BME280;29792;48.726;9.248;2023-02-23T13:36:59;96517.72;;;14.28;72.84
44131;BME280;29792;48.726;9.248;2023-02-23T13:44:38;96506.59;;;14.28;73.86
44131;BME280;29792;48.726;9.248;2023-02-23T13:49:56;96500.34;;;14.30;74.80
44131;BME280;29792;48.726;9.248;2023-02-23T13:54:59;96501.28;;;14.29;73.73
44131;BME280;29792;48.726;9.248;2023-02-23T13:57:28;96503.53;;;14.24;73.32
44131;BME280;29792;48.726;9.248;2023-02-23T13:59:55;96508.34;;;14.19;73.96
44131;BME280;29792;48.726;9.248;2023-02-23T14:04:56;96508.84;;;14.14;73.62
44131;BME280;29792;48.726;9.248;2023-02-23T14:07:33;96506.91;;;14.08;73.19
44131;BME280;29792;48.726;9.248;2023-02-23T14:10:05;96512.50;;;14.04;73.91
44131;BME280;29792;48.726;9.248;2023-02-23T14:12:38;96505.91;;;14.01;74.28
44131;BME280;29792;48.726;9.248;2023-02-23T14:17:59;96501.38;;;14.03;74.56
44131;BME280;29792;48.726;9.248;2023-02-23T14:28:31;96496.72;;;13.99;74.88
44131;BME280;29792;48.726;9.248;2023-02-23T14:30:59;96493.84;;;14.02;74.69
44131;BME280;29792;48.726;9.248;2023-02-23T14:39:14;96505.09;;;14.01;75.54
44131;BME280;29792;48.726;9.248;2023-02-23T14:41:52;96502.34;;;13.94;75.83
44131;BME280;29792;48.726;9.248;2023-02-23T14:44:24;96503.09;;;13.87;76.67
44131;BME280;29792;48.726;9.248;2023-02-23T14:46:59;96496.97;;;13.80;77.31
44131;BME280;29792;48.726;9.248;2023-02-23T14:49:27;96501.78;;;13.74;77.55
44131;BME280;29792;48.726;9.248;2023-02-23T14:51:57;96510.31;;;13.75;77.97